Time;durP1;ratioP1;P1;durP2;ratioP2;P2;SDS_P1;SDS_P2;PMS_P1;PMS_P2;Temp;Humidity;BMP_temperature;BMP_pressure;BME280_temperature;BME280_humidity;BME280_pressure;Samples;Min_cycle;Max_cycle;Signal;HPM_P1;HPM_P2
2022/07/19 00:02:19;;;;;;;;;;;22.30;99.90;;;;;;5093478;28;19904;-77
2022/07/19 00:04:44;;;;;;;;;;;22.30;99.90;;;;;;5093715;28;19904;-77
2022/07/19 00:07:10;;;;;;;;;;;22.30;99.90;;;;;;5093143;28;19904;-77
2022/07/19 00:09:35;;;;;;;;;;;22.30;99.90;;;;;;5094036;28;19904;-77
2022/07/19 00:12:01;;;;;;;;;;;22.30;99.90;;;;;;5074799;28;19904;-76
2022/07/19 00:14:26;;;;;;;;;;;22.30;99.90;;;;;;5093286;28;19951;-77
2022/07/19 00:16:52;;;;;;;;;;;22.20;99.90;;;;;;5093193;28;20343;-76
2022/07/19 00:19:18;;;;;;;;;;;22.20;99.90;;;;;;5093485;28;19964;-77
2022/07/19 00:21:43;;;;;;;;;;;22.10;99.90;;;;;;5093150;28;19904;-77
2022/07/19 00:24:09;;;;;;;;;;;22.10;99.90;;;;;;5092904;28;19911;-76
2022/07/19 00:26:34;;;;;;;;;;;22.00;99.90;;;;;;5075091;28;19953;-77
2022/07/19 00:29:01;;;;;;;;;;;22.00;99.90;;;;;;5092555;28;19904;-76
2022/07/19 00:31:27;;;;;;;;;;;22.00;99.90;;;;;;5093476;28;19994;-76
2022/07/19 00:33:53;;;;;;;;;;;21.90;99.90;;;;;;5093108;28;20419;-77
2022/07/19 00:36:19;;;;;;;;;;;21.90;99.90;;;;;;5092590;28;19919;-76
2022/07/19 00:38:45;;;;;;;;;;;21.90;99.90;;;;;;5092900;28;19947;-76
2022/07/19 00:41:11;;;;;;;;;;;21.90;99.90;;;;;;5092603;28;19907;-76
2022/07/19 00:43:39;;;;;;;;;;;21.80;99.90;;;;;;5093103;28;19904;-76
2022/07/19 00:46:10;;;;;;;;;;;21.80;99.90;;;;;;5092107;28;20362;-77
2022/07/19 00:48:37;;;;;;;;;;;21.70;99.90;;;;;;5092808;28;20403;-77
2022/07/19 00:51:03;;;;;;;;;;;21.70;99.90;;;;;;5092068;28;19904;-76
2022/07/19 00:53:29;;;;;;;;;;;21.70;99.90;;;;;;5093002;28;19949;-76
2022/07/19 00:55:56;;;;;;;;;;;21.60;99.90;;;;;;5092576;28;19919;-76
2022/07/19 00:58:21;;;;;;;;;;;21.70;99.90;;;;;;5092868;28;20362;-76
2022/07/19 01:00:47;;;;;;;;;;;21.70;99.90;;;;;;5092971;28;19911;-76
2022/07/19 01:03:13;;;;;;;;;;;21.70;99.90;;;;;;5092344;28;19904;-76
2022/07/19 01:05:38;;;;;;;;;;;21.60;99.90;;;;;;5092967;28;19999;-76
2022/07/19 01:08:05;;;;;;;;;;;21.60;99.90;;;;;;5092251;28;19995;-76
2022/07/19 01:10:31;;;;;;;;;;;21.60;99.90;;;;;;5074666;28;19927;-76
2022/07/19 01:12:56;;;;;;;;;;;21.60;99.90;;;;;;5092582;28;20374;-76
2022/07/19 01:15:24;;;;;;;;;;;21.50;99.90;;;;;;5095546;28;19970;-77
2022/07/19 01:17:50;;;;;;;;;;;21.50;99.90;;;;;;5096478;28;20362;-76
2022/07/19 01:20:16;;;;;;;;;;;21.50;99.90;;;;;;5096257;28;19915;-76
2022/07/19 01:22:42;;;;;;;;;;;21.40;99.90;;;;;;5096772;28;19955;-76
2022/07/19 01:25:08;;;;;;;;;;;21.40;99.90;;;;;;5096488;28;19904;-76
2022/07/19 01:27:38;;;;;;;;;;;21.30;99.90;;;;;;5096977;28;19912;-76
2022/07/19 01:30:09;;;;;;;;;;;21.30;99.90;;;;;;5096157;28;20008;-75
2022/07/19 01:32:34;;;;;;;;;;;21.20;99.90;;;;;;5096667;28;19927;-76
2022/07/19 01:35:00;;;;;;;;;;;21.10;99.90;;;;;;5077821;28;20355;-76
2022/07/19 01:37:25;;;;;;;;;;;20.90;99.90;;;;;;5096229;28;19967;-76
2022/07/19 01:39:51;;;;;;;;;;;20.90;99.90;;;;;;5096485;28;19931;-75
2022/07/19 01:42:17;;;;;;;;;;;20.90;99.90;;;;;;5095819;28;19915;-77
2022/07/19 01:44:42;;;;;;;;;;;20.90;99.90;;;;;;5096303;28;19911;-76
2022/07/19 01:47:08;;;;;;;;;;;20.90;99.90;;;;;;5095528;28;19916;-76
2022/07/19 01:49:33;;;;;;;;;;;20.90;99.90;;;;;;5095999;28;19904;-76
2022/07/19 01:51:59;;;;;;;;;;;21.00;99.90;;;;;;5096007;28;20355;-76
2022/07/19 01:54:24;;;;;;;;;;;21.00;99.90;;;;;;5095924;28;19953;-76
2022/07/19 01:56:50;;;;;;;;;;;21.00;99.90;;;;;;5095956;28;19919;-76
2022/07/19 01:59:15;;;;;;;;;;;21.10;99.90;;;;;;5095265;28;20423;-76
2022/07/19 02:01:41;;;;;;;;;;;21.00;99.90;;;;;;5095773;28;20332;-76
2022/07/19 02:04:07;;;;;;;;;;;21.00;99.90;;;;;;5095451;28;19957;-76
2022/07/19 02:06:32;;;;;;;;;;;20.90;99.90;;;;;;5095903;28;20342;-76
2022/07/19 02:08:58;;;;;;;;;;;20.80;99.90;;;;;;5095931;28;19930;-76
2022/07/19 02:11:35;;;;;;;;;;;20.80;99.90;;;;;;5095368;28;19904;-76
2022/07/19 02:14:01;;;;;;;;;;;20.80;99.90;;;;;;5095469;28;20360;-76
2022/07/19 02:16:27;;;;;;;;;;;20.70;99.90;;;;;;5095672;28;19951;-76
2022/07/19 02:18:53;;;;;;;;;;;20.70;99.90;;;;;;5095351;28;19950;-77
2022/07/19 02:21:18;;;;;;;;;;;20.60;99.90;;;;;;5094889;28;19943;-76
2022/07/19 02:23:44;;;;;;;;;;;20.50;99.90;;;;;;5095751;28;19954;-76
2022/07/19 02:26:10;;;;;;;;;;;20.50;99.90;;;;;;5093724;28;19904;-76
2022/07/19 02:28:35;;;;;;;;;;;20.50;99.90;;;;;;5095380;28;20350;-76
2022/07/19 02:31:01;;;;;;;;;;;20.50;99.90;;;;;;5095127;28;19904;-76
2022/07/19 02:33:26;;;;;;;;;;;20.40;99.90;;;;;;5095167;28;19908;-76
2022/07/19 02:35:52;;;;;;;;;;;20.40;99.90;;;;;;5095048;28;19922;-76
2022/07/19 02:38:17;;;;;;;;;;;20.50;99.90;;;;;;5094725;28;20468;-76
2022/07/19 02:40:43;;;;;;;;;;;20.40;99.90;;;;;;5095370;28;19911;-77
2022/07/19 02:43:08;;;;;;;;;;;20.30;99.90;;;;;;5094686;28;19990;-76
2022/07/19 02:45:34;;;;;;;;;;;20.30;99.90;;;;;;5095246;28;19904;-75
2022/07/19 02:48:01;;;;;;;;;;;20.30;99.90;;;;;;5095418;28;20261;-76
2022/07/19 02:50:27;;;;;;;;;;;20.20;99.90;;;;;;5094666;28;19904;-75
2022/07/19 02:52:52;;;;;;;;;;;20.20;99.90;;;;;;5095124;28;19969;-76
2022/07/19 02:55:18;;;;;;;;;;;20.20;99.90;;;;;;5094380;28;20011;-76
2022/07/19 02:57:43;;;;;;;;;;;20.20;99.90;;;;;;5094649;28;20282;-75
2022/07/19 03:00:09;;;;;;;;;;;20.10;99.90;;;;;;5094185;28;19927;-76
2022/07/19 03:02:35;;;;;;;;;;;20.10;99.90;;;;;;5094634;28;19969;-76
2022/07/19 03:05:01;;;;;;;;;;;20.10;99.90;;;;;;5095387;28;19904;-76
2022/07/19 03:07:26;;;;;;;;;;;20.10;99.90;;;;;;5094183;28;19911;-76
2022/07/19 03:09:52;;;;;;;;;;;20.10;99.90;;;;;;5094827;28;19908;-77
2022/07/19 03:12:17;;;;;;;;;;;20.00;99.90;;;;;;5094228;28;19904;-76
2022/07/19 03:14:43;;;;;;;;;;;19.90;99.90;;;;;;5094459;28;20261;-76
2022/07/19 03:17:08;;;;;;;;;;;20.00;99.90;;;;;;5094136;28;19904;-76
2022/07/19 03:19:34;;;;;;;;;;;19.90;99.90;;;;;;5094772;28;19949;-76
2022/07/19 03:21:59;;;;;;;;;;;19.90;99.90;;;;;;5094334;28;20334;-77
2022/07/19 03:24:25;;;;;;;;;;;19.90;99.90;;;;;;5093938;28;19911;-77
2022/07/19 03:26:51;;;;;;;;;;;19.80;99.90;;;;;;5094402;28;19999;-77
2022/07/19 03:29:16;;;;;;;;;;;19.70;99.90;;;;;;5093362;28;20309;-77
2022/07/19 03:31:42;;;;;;;;;;;19.60;99.90;;;;;;5094348;28;19912;-77
2022/07/19 03:34:07;;;;;;;;;;;19.50;99.90;;;;;;5094014;28;19911;-77
2022/07/19 03:36:33;;;;;;;;;;;19.50;99.90;;;;;;5093861;28;19912;-77
2022/07/19 03:38:58;;;;;;;;;;;19.50;99.90;;;;;;5093913;28;19950;-77
2022/07/19 03:41:24;;;;;;;;;;;19.50;99.90;;;;;;5093562;28;19904;-78
2022/07/19 03:43:50;;;;;;;;;;;19.60;99.90;;;;;;5094115;28;20355;-76
2022/07/19 03:46:15;;;;;;;;;;;19.50;99.90;;;;;;5092943;28;20006;-76
2022/07/19 03:48:41;;;;;;;;;;;19.50;99.90;;;;;;5094242;28;19915;-76
2022/07/19 03:51:06;;;;;;;;;;;19.50;99.90;;;;;;5093901;28;19961;-76
2022/07/19 03:53:34;;;;;;;;;;;19.30;99.90;;;;;;5093751;28;20270;-76
2022/07/19 03:56:00;;;;;;;;;;;19.30;99.90;;;;;;5093555;28;19912;-76
2022/07/19 03:58:25;;;;;;;;;;;19.20;99.90;;;;;;5093130;28;20074;-76
2022/07/19 04:00:51;;;;;;;;;;;19.20;99.90;;;;;;5093800;28;19904;-76
2022/07/19 04:03:17;;;;;;;;;;;19.10;99.90;;;;;;5093143;28;19957;-76
2022/07/19 04:05:43;;;;;;;;;;;19.20;99.90;;;;;;5075545;28;19912;-76
2022/07/19 04:08:08;;;;;;;;;;;19.20;99.90;;;;;;5093090;28;19904;-76
2022/07/19 04:10:34;;;;;;;;;;;19.10;99.90;;;;;;5093553;28;20070;-76
2022/07/19 04:13:00;;;;;;;;;;;19.10;99.90;;;;;;5093727;28;19904;-77
2022/07/19 04:15:25;;;;;;;;;;;19.10;99.90;;;;;;5074730;28;20354;-77
2022/07/19 04:17:51;;;;;;;;;;;19.00;99.90;;;;;;5093239;28;19957;-76
2022/07/19 04:20:16;;;;;;;;;;;19.00;99.90;;;;;;5092936;28;19904;-76
2022/07/19 04:22:42;;;;;;;;;;;19.00;99.90;;;;;;5075180;28;19956;-76
2022/07/19 04:25:08;;;;;;;;;;;19.00;99.90;;;;;;5093141;28;19904;-76
2022/07/19 04:27:34;;;;;;;;;;;19.00;99.90;;;;;;5093058;28;19904;-76
2022/07/19 04:29:59;;;;;;;;;;;19.00;99.90;;;;;;5093188;28;19904;-76
2022/07/19 04:32:25;;;;;;;;;;;19.00;99.90;;;;;;5093127;28;19904;-76
2022/07/19 04:34:51;;;;;;;;;;;19.00;99.90;;;;;;5093119;28;19904;-76
2022/07/19 04:37:16;;;;;;;;;;;18.90;99.90;;;;;;5092709;28;20293;-76
2022/07/19 04:39:42;;;;;;;;;;;18.90;99.90;;;;;;5093157;28;20010;-76
2022/07/19 04:42:08;;;;;;;;;;;18.90;99.90;;;;;;5093127;28;19908;-76
2022/07/19 04:44:33;;;;;;;;;;;18.90;99.90;;;;;;5092334;28;19930;-76
2022/07/19 04:46:59;;;;;;;;;;;18.80;99.90;;;;;;5092943;28;20258;-76
2022/07/19 04:49:25;;;;;;;;;;;18.90;99.90;;;;;;5091679;28;19904;-76
2022/07/19 04:51:51;;;;;;;;;;;18.80;99.90;;;;;;5092743;28;19943;-77
2022/07/19 04:54:17;;;;;;;;;;;18.80;99.90;;;;;;5092496;28;20366;-76
2022/07/19 04:56:43;;;;;;;;;;;18.80;99.90;;;;;;5074787;28;19908;-76
2022/07/19 04:59:08;;;;;;;;;;;18.80;99.90;;;;;;5092891;28;20350;-76
2022/07/19 05:01:34;;;;;;;;;;;18.80;99.90;;;;;;5092068;28;19904;-76
2022/07/19 05:04:00;;;;;;;;;;;18.80;99.90;;;;;;5092501;28;19994;-76
2022/07/19 05:06:25;;;;;;;;;;;18.80;99.90;;;;;;5092080;28;19995;-76
2022/07/19 05:08:52;;;;;;;;;;;18.90;99.90;;;;;;5074900;28;19904;-76
2022/07/19 05:11:18;;;;;;;;;;;19.00;99.90;;;;;;5092148;28;19904;-76
2022/07/19 05:13:44;;;;;;;;;;;18.90;99.90;;;;;;5092933;28;19911;-76
2022/07/19 05:16:09;;;;;;;;;;;18.90;99.90;;;;;;5092309;28;19908;-76
2022/07/19 05:18:35;;;;;;;;;;;18.90;99.90;;;;;;5092281;28;19944;-76
2022/07/19 05:21:01;;;;;;;;;;;18.90;99.90;;;;;;5092418;28;20282;-76
2022/07/19 05:23:26;;;;;;;;;;;18.90;99.90;;;;;;5092056;28;19904;-76
2022/07/19 05:25:52;;;;;;;;;;;18.90;99.90;;;;;;5092692;28;20343;-77
2022/07/19 05:28:17;;;;;;;;;;;18.90;99.90;;;;;;5092128;28;19911;-76
2022/07/19 05:30:43;;;;;;;;;;;19.00;99.90;;;;;;5092206;28;19910;-77
2022/07/19 05:33:09;;;;;;;;;;;19.00;99.90;;;;;;5092567;28;19911;-76
2022/07/19 05:35:34;;;;;;;;;;;19.10;99.90;;;;;;5091857;28;19912;-76
2022/07/19 05:38:00;;;;;;;;;;;19.10;99.90;;;;;;5092574;28;19908;-77
2022/07/19 05:40:26;;;;;;;;;;;19.20;99.90;;;;;;5091638;28;19908;-76
2022/07/19 05:42:51;;;;;;;;;;;19.20;99.90;;;;;;5074285;28;19912;-76
2022/07/19 05:45:17;;;;;;;;;;;19.30;99.90;;;;;;5091737;28;20433;-76
2022/07/19 05:47:43;;;;;;;;;;;19.30;99.90;;;;;;5091940;28;20332;-76
2022/07/19 05:50:08;;;;;;;;;;;19.40;99.90;;;;;;5092367;28;19915;-77
2022/07/19 05:52:34;;;;;;;;;;;19.50;99.90;;;;;;5091403;28;19900;-77
2022/07/19 05:55:00;;;;;;;;;;;19.40;99.90;;;;;;5092221;28;19959;-77
2022/07/19 05:57:25;;;;;;;;;;;19.40;99.90;;;;;;5091683;28;20068;-77
2022/07/19 05:59:51;;;;;;;;;;;19.50;99.90;;;;;;5092349;28;19904;-77
2022/07/19 06:02:17;;;;;;;;;;;19.50;99.90;;;;;;5095309;28;19904;-77
2022/07/19 06:04:42;;;;;;;;;;;19.60;99.90;;;;;;5096012;28;20002;-77
2022/07/19 06:07:08;;;;;;;;;;;19.70;99.90;;;;;;5095898;28;19939;-77
2022/07/19 06:09:34;;;;;;;;;;;19.90;99.90;;;;;;5095381;28;19943;-77
2022/07/19 06:12:00;;;;;;;;;;;20.00;99.90;;;;;;5095705;28;19904;-77
2022/07/19 06:14:25;;;;;;;;;;;20.00;99.90;;;;;;5095246;28;19952;-77
2022/07/19 06:16:51;;;;;;;;;;;20.00;99.90;;;;;;5095486;28;19914;-77
2022/07/19 06:19:16;;;;;;;;;;;20.10;99.90;;;;;;5095218;28;19915;-77
2022/07/19 06:21:42;;;;;;;;;;;20.20;99.90;;;;;;5095221;28;19908;-77
2022/07/19 06:24:07;;;;;;;;;;;20.20;99.90;;;;;;5095517;28;19904;-78
2022/07/19 06:26:33;;;;;;;;;;;20.20;99.90;;;;;;5076635;28;19957;-76
2022/07/19 06:28:59;;;;;;;;;;;20.20;99.90;;;;;;5095562;28;19904;-76
2022/07/19 06:31:24;;;;;;;;;;;20.30;99.90;;;;;;5094878;28;19908;-75
2022/07/19 06:33:51;;;;;;;;;;;20.30;99.90;;;;;;5095044;28;20277;-75
2022/07/19 06:36:17;;;;;;;;;;;20.40;99.90;;;;;;5077062;28;20007;-76
2022/07/19 06:38:42;;;;;;;;;;;20.40;99.90;;;;;;5095224;28;19918;-76
2022/07/19 06:41:09;;;;;;;;;;;20.40;99.90;;;;;;5095284;28;20278;-76
2022/07/19 06:43:35;;;;;;;;;;;20.40;99.90;;;;;;5094453;28;19908;-76
2022/07/19 06:46:00;;;;;;;;;;;20.50;99.90;;;;;;5094834;28;19911;-76
2022/07/19 06:48:26;;;;;;;;;;;20.60;99.90;;;;;;5093773;28;19904;-76
2022/07/19 06:50:51;;;;;;;;;;;20.60;99.90;;;;;;5095072;28;19915;-77
2022/07/19 06:53:17;;;;;;;;;;;20.70;99.90;;;;;;5094786;28;20338;-76
2022/07/19 06:55:43;;;;;;;;;;;20.80;99.90;;;;;;5094921;28;19931;-77
2022/07/19 06:58:08;;;;;;;;;;;21.00;99.90;;;;;;5095030;28;20278;-76
2022/07/19 07:00:34;;;;;;;;;;;21.10;99.90;;;;;;5094460;28;19904;-77
2022/07/19 07:03:00;;;;;;;;;;;21.20;99.90;;;;;;5076917;28;19904;-76
2022/07/19 07:05:25;;;;;;;;;;;21.20;99.90;;;;;;5094566;28;19918;-76
2022/07/19 07:07:52;;;;;;;;;;;21.30;99.90;;;;;;5094279;28;19911;-76
2022/07/19 07:10:17;;;;;;;;;;;21.40;99.90;;;;;;5094563;28;19904;-76
2022/07/19 07:12:43;;;;;;;;;;;21.50;99.90;;;;;;5093888;28;20293;-76
2022/07/19 07:15:09;;;;;;;;;;;21.60;99.90;;;;;;5094414;28;19915;-76
2022/07/19 07:17:35;;;;;;;;;;;21.60;99.90;;;;;;5094030;28;19911;-76
2022/07/19 07:20:01;;;;;;;;;;;21.60;99.90;;;;;;5094597;28;19950;-76
2022/07/19 07:22:26;;;;;;;;;;;21.70;99.90;;;;;;5093857;28;19930;-76
2022/07/19 07:24:52;;;;;;;;;;;21.80;99.90;;;;;;5094259;28;19913;-78
2022/07/19 07:27:18;;;;;;;;;;;21.90;99.90;;;;;;5094022;28;20361;-76
2022/07/19 07:29:43;;;;;;;;;;;22.00;99.90;;;;;;5093789;28;19911;-76
2022/07/19 07:32:09;;;;;;;;;;;22.10;99.90;;;;;;5094176;28;19919;-76
2022/07/19 07:34:34;;;;;;;;;;;22.20;99.90;;;;;;5093364;28;20316;-76
2022/07/19 07:37:00;;;;;;;;;;;22.30;99.90;;;;;;5088987;28;19912;-76
2022/07/19 07:39:25;;;;;;;;;;;22.40;99.90;;;;;;5055238;28;19999;-75
2022/07/19 07:41:51;;;;;;;;;;;22.40;99.90;;;;;;5073408;28;19926;-76
2022/07/19 07:44:16;;;;;;;;;;;22.50;99.90;;;;;;5073148;28;19949;-76
2022/07/19 07:46:42;;;;;;;;;;;22.70;99.90;;;;;;5072730;28;19924;-77
2022/07/19 07:49:08;;;;;;;;;;;22.90;99.90;;;;;;5073476;28;19904;-76
2022/07/19 07:51:33;;;;;;;;;;;23.10;99.90;;;;;;5072367;28;19919;-76
2022/07/19 07:54:00;;;;;;;;;;;23.30;99.90;;;;;;5073176;28;19904;-77
2022/07/19 07:56:25;;;;;;;;;;;23.60;99.90;;;;;;5071988;28;19912;-76
2022/07/19 07:58:51;;;;;;;;;;;23.70;99.90;;;;;;5073470;28;19915;-76
2022/07/19 08:01:17;;;;;;;;;;;23.90;99.90;;;;;;5073502;28;19908;-76
2022/07/19 08:03:43;;;;;;;;;;;24.10;99.90;;;;;;5072675;28;19908;-78
2022/07/19 08:06:09;;;;;;;;;;;24.20;99.90;;;;;;5091563;28;19946;-78
2022/07/19 08:08:34;;;;;;;;;;;24.30;99.90;;;;;;5092611;28;20358;-78
2022/07/19 08:11:00;;;;;;;;;;;24.40;99.90;;;;;;5093460;28;19943;-77
2022/07/19 08:13:26;;;;;;;;;;;24.50;99.90;;;;;;5092601;28;19930;-77
2022/07/19 08:15:51;;;;;;;;;;;24.60;99.90;;;;;;5093200;28;19922;-78
2022/07/19 08:18:17;;;;;;;;;;;24.70;99.90;;;;;;5093019;28;19908;-78
2022/07/19 08:20:43;;;;;;;;;;;24.70;99.90;;;;;;5074502;28;19915;-78
2022/07/19 08:23:09;;;;;;;;;;;24.80;99.90;;;;;;5092857;28;19904;-78
2022/07/19 08:25:34;;;;;;;;;;;24.80;99.90;;;;;;5088223;28;19958;-77
2022/07/19 08:28:01;;;;;;;;;;;24.90;99.90;;;;;;5072864;28;20298;-78
2022/07/19 08:30:26;;;;;;;;;;;25.00;99.90;;;;;;5054222;28;19908;-77
2022/07/19 08:32:52;;;;;;;;;;;25.10;99.90;;;;;;5054456;28;19927;-77
2022/07/19 08:35:18;;;;;;;;;;;25.10;99.90;;;;;;5072569;28;19919;-77
2022/07/19 08:37:43;;;;;;;;;;;25.20;99.90;;;;;;5071995;28;20287;-76
2022/07/19 08:40:09;;;;;;;;;;;25.30;99.90;;;;;;5072617;28;19951;-77
2022/07/19 08:42:35;;;;;;;;;;;25.30;99.90;;;;;;5072460;28;20375;-76
2022/07/19 08:45:03;;;;;;;;;;;25.20;99.90;;;;;;5072717;28;19905;-76
2022/07/19 08:47:30;;;;;;;;;;;25.20;99.90;;;;;;5071535;28;19916;-77
2022/07/19 08:49:57;;;;;;;;;;;25.10;99.90;;;;;;5072425;28;19973;-75
2022/07/19 08:52:23;;;;;;;;;;;25.10;99.90;;;;;;5071612;28;19905;-76
2022/07/19 08:54:49;;;;;;;;;;;25.00;99.90;;;;;;5072283;28;19966;-76
2022/07/19 08:59:59;;;;;;;;;;;25.10;99.90;;;;;;5072455;28;19912;-76
2022/07/19 09:02:24;;;;;;;;;;;25.10;99.90;;;;;;5071690;28;19904;-76
2022/07/19 09:05:10;;;;;;;;;;;25.20;99.90;;;;;;5072600;28;19905;-76
2022/07/19 09:07:37;;;;;;;;;;;25.30;99.90;;;;;;5071224;28;19904;-76
2022/07/19 09:10:16;;;;;;;;;;;25.40;99.90;;;;;;5071707;28;19908;-76
2022/07/19 09:13:01;;;;;;;;;;;25.40;99.90;;;;;;5071231;28;19908;-76
2022/07/19 09:15:46;;;;;;;;;;;25.50;99.90;;;;;;5071465;28;19944;-76
2022/07/19 09:18:11;;;;;;;;;;;25.50;99.90;;;;;;5071646;28;20401;-76
2022/07/19 09:20:37;;;;;;;;;;;25.50;99.90;;;;;;5071163;28;19904;-76
2022/07/19 09:23:04;;;;;;;;;;;25.50;99.90;;;;;;5071473;28;19911;-76
2022/07/19 09:25:37;;;;;;;;;;;25.50;99.90;;;;;;5071228;28;19919;-77
2022/07/19 09:28:02;;;;;;;;;;;25.50;99.90;;;;;;5071672;28;19909;-77
2022/07/19 09:30:32;;;;;;;;;;;25.60;99.90;;;;;;5053532;28;19942;-76
2022/07/19 09:33:06;;;;;;;;;;;25.50;99.90;;;;;;5071498;28;19904;-75
2022/07/19 09:35:36;;;;;;;;;;;25.50;99.90;;;;;;5072307;28;19919;-76
2022/07/19 09:38:15;;;;;;;;;;;25.40;99.90;;;;;;5057757;28;19917;-77
2022/07/19 09:40:40;;;;;;;;;;;25.30;99.90;;;;;;5074618;28;19910;-77
2022/07/19 09:43:06;;;;;;;;;;;25.20;99.90;;;;;;5075612;28;19995;-76
2022/07/19 09:45:32;;;;;;;;;;;25.20;99.90;;;;;;5074670;28;19908;-76
2022/07/19 09:48:00;;;;;;;;;;;25.30;99.90;;;;;;5075546;28;20338;-78
2022/07/19 09:50:26;;;;;;;;;;;25.30;99.90;;;;;;5075021;28;19912;-77
2022/07/19 09:52:52;;;;;;;;;;;25.40;99.90;;;;;;5057933;28;19909;-78
2022/07/19 09:55:19;;;;;;;;;;;25.50;99.90;;;;;;5057831;28;19952;-76
2022/07/19 09:57:46;;;;;;;;;;;25.50;99.90;;;;;;5075163;28;20466;-77
2022/07/19 10:00:13;;;;;;;;;;;25.60;99.90;;;;;;5075351;28;19962;-77
2022/07/19 10:02:40;;;;;;;;;;;25.70;99.90;;;;;;5075733;28;19905;-77
2022/07/19 10:05:06;;;;;;;;;;;25.90;99.90;;;;;;5076143;28;19911;-80
2022/07/19 10:07:32;;;;;;;;;;;26.30;99.90;;;;;;5075280;28;19909;-78
2022/07/19 10:10:01;;;;;;;;;;;26.50;99.90;;;;;;5075741;28;19954;-78
2022/07/19 10:12:27;;;;;;;;;;;26.80;99.90;;;;;;5074727;28;20346;-79
2022/07/19 10:14:53;;;;;;;;;;;26.90;99.90;;;;;;5057556;28;19936;-78
2022/07/19 10:17:31;;;;;;;;;;;27.10;99.90;;;;;;5075277;28;19909;-78
2022/07/19 10:19:57;;;;;;;;;;;27.40;99.90;;;;;;5075071;28;19904;-78
2022/07/19 10:22:24;;;;;;;;;;;27.50;99.90;;;;;;5075680;28;19962;-78
2022/07/19 10:24:54;;;;;;;;;;;27.60;99.90;;;;;;5075063;28;19909;-76
2022/07/19 10:27:26;;;;;;;;;;;27.70;99.90;;;;;;5075291;28;19948;-77
2022/07/19 10:29:57;;;;;;;;;;;27.80;99.90;;;;;;5057305;28;19905;-77
2022/07/19 10:32:29;;;;;;;;;;;27.70;99.90;;;;;;5075541;28;19909;-77
2022/07/19 10:35:13;;;;;;;;;;;27.70;99.90;;;;;;5075511;28;19904;-76
2022/07/19 10:37:40;;;;;;;;;;;27.60;99.90;;;;;;5075149;28;19908;-77
2022/07/19 10:40:06;;;;;;;;;;;27.60;99.90;;;;;;5087497;28;19911;-79
2022/07/19 10:42:31;;;;;;;;;;;27.60;99.90;;;;;;5079188;28;20274;-75
2022/07/19 10:44:57;;;;;;;;;;;27.60;99.90;;;;;;5075068;28;19926;-76
2022/07/19 10:47:32;;;;;;;;;;;27.60;99.90;;;;;;5080783;28;19920;-76
2022/07/19 10:50:01;;;;;;;;;;;27.50;99.90;;;;;;5079981;28;20003;-77
2022/07/19 10:52:27;;;;;;;;;;;27.40;99.90;;;;;;5074839;28;19912;-77
2022/07/19 10:55:11;;;;;;;;;;;27.30;99.90;;;;;;5056584;28;20263;-77
2022/07/19 10:57:37;;;;;;;;;;;27.30;99.90;;;;;;5074115;28;19908;-77
2022/07/19 11:00:23;;;;;;;;;;;27.20;99.90;;;;;;5056750;28;20411;-78
2022/07/19 11:02:50;;;;;;;;;;;27.20;99.90;;;;;;5073538;28;19901;-77
2022/07/19 11:05:22;;;;;;;;;;;27.20;99.90;;;;;;5074622;28;19904;-78
2022/07/19 11:07:49;;;;;;;;;;;27.30;99.90;;;;;;5073822;28;20370;-78
2022/07/19 11:10:21;;;;;;;;;;;27.30;99.90;;;;;;5074469;28;19973;-77
2022/07/19 11:12:46;;;;;;;;;;;27.30;99.90;;;;;;5073819;28;19904;-77
2022/07/19 11:15:12;;;;;;;;;;;27.30;99.90;;;;;;5074393;28;19912;-77
2022/07/19 11:17:38;;;;;;;;;;;27.30;99.90;;;;;;5073868;28;19931;-77
2022/07/19 11:20:08;;;;;;;;;;;27.20;99.90;;;;;;5074352;28;20289;-77
2022/07/19 11:22:34;;;;;;;;;;;27.00;99.90;;;;;;5073455;28;19958;-76
2022/07/19 11:25:00;;;;;;;;;;;26.90;99.90;;;;;;5073870;28;19905;-76
2022/07/19 11:27:26;;;;;;;;;;;26.90;99.90;;;;;;5074166;28;20274;-76
2022/07/19 11:29:52;;;;;;;;;;;26.70;99.90;;;;;;5073196;28;19934;-75
2022/07/19 11:32:18;;;;;;;;;;;26.70;99.90;;;;;;5056381;28;19904;-75
2022/07/19 11:34:52;;;;;;;;;;;26.60;99.90;;;;;;5073523;28;19991;-76
2022/07/19 11:37:25;;;;;;;;;;;26.70;99.90;;;;;;5074144;28;19912;-77
2022/07/19 11:39:50;;;;;;;;;;;26.60;99.90;;;;;;5073314;28;19904;-76
2022/07/19 11:42:26;;;;;;;;;;;26.80;99.90;;;;;;5074214;28;19904;-76
2022/07/19 11:44:52;;;;;;;;;;;26.90;99.90;;;;;;5073599;28;19908;-76
2022/07/19 11:47:18;;;;;;;;;;;27.00;99.90;;;;;;5073532;28;19917;-77
2022/07/19 11:49:43;;;;;;;;;;;27.10;99.90;;;;;;5073280;28;20020;-77
2022/07/19 11:52:09;;;;;;;;;;;27.10;99.90;;;;;;5073383;28;19904;-77
2022/07/19 11:54:34;;;;;;;;;;;27.10;99.90;;;;;;5073389;28;20374;-76
2022/07/19 11:57:00;;;;;;;;;;;27.10;99.90;;;;;;5073517;28;19915;-75
2022/07/19 11:59:25;;;;;;;;;;;27.10;99.90;;;;;;5073188;28;20006;-76
2022/07/19 12:01:54;;;;;;;;;;;27.00;99.90;;;;;;5073275;28;20472;-75
2022/07/19 12:04:21;;;;;;;;;;;26.80;99.90;;;;;;5073468;28;19911;-76
2022/07/19 12:06:47;;;;;;;;;;;26.70;99.90;;;;;;5072785;28;19904;-75
2022/07/19 12:09:15;;;;;;;;;;;26.60;99.90;;;;;;5073260;28;20274;-76
2022/07/19 12:11:42;;;;;;;;;;;26.40;99.90;;;;;;5072797;28;19958;-76
2022/07/19 12:14:24;;;;;;;;;;;26.30;99.90;;;;;;5055025;28;19904;-76
2022/07/19 12:17:09;;;;;;;;;;;26.20;99.90;;;;;;5072605;28;19908;-76
2022/07/19 12:19:34;;;;;;;;;;;26.00;99.90;;;;;;5072794;28;19909;-75
2022/07/19 12:22:00;;;;;;;;;;;25.80;99.90;;;;;;5055114;28;19904;-76
2022/07/19 12:24:27;;;;;;;;;;;25.50;99.90;;;;;;5072750;28;19905;-76
2022/07/19 12:26:55;;;;;;;;;;;25.40;99.90;;;;;;5072468;28;19908;-75
2022/07/19 12:29:24;;;;;;;;;;;25.30;99.90;;;;;;5072886;28;19936;-75
2022/07/19 12:31:52;;;;;;;;;;;25.20;99.90;;;;;;5072132;28;19987;-75
2022/07/19 12:34:17;;;;;;;;;;;25.30;99.90;;;;;;5072621;28;19947;-75
2022/07/19 12:36:44;;;;;;;;;;;25.40;99.90;;;;;;5072490;28;19944;-75
2022/07/19 12:39:20;;;;;;;;;;;25.50;99.90;;;;;;5072633;28;20270;-75
2022/07/19 12:41:52;;;;;;;;;;;25.80;99.90;;;;;;5071812;28;19904;-76
2022/07/19 12:44:18;;;;;;;;;;;26.00;99.90;;;;;;5072331;28;19905;-75
2022/07/19 12:46:43;;;;;;;;;;;26.10;99.90;;;;;;5071620;28;19939;-76
2022/07/19 12:49:09;;;;;;;;;;;26.20;99.90;;;;;;5072032;28;19935;-76
2022/07/19 12:51:35;;;;;;;;;;;26.30;99.90;;;;;;5071521;28;19904;-75
2022/07/19 12:54:01;;;;;;;;;;;26.40;99.90;;;;;;5054035;28;19911;-75
2022/07/19 12:56:26;;;;;;;;;;;26.40;99.90;;;;;;5072123;28;19912;-77
2022/07/19 13:01:36;;;;;;;;;;;26.40;99.90;;;;;;5071219;28;19949;-75
2022/07/19 13:04:01;;;;;;;;;;;26.40;99.90;;;;;;5072614;28;20309;-75
2022/07/19 13:06:27;;;;;;;;;;;26.50;99.90;;;;;;5072722;28;19912;-75
2022/07/19 13:08:52;;;;;;;;;;;26.50;99.90;;;;;;5071747;28;19908;-75
2022/07/19 13:11:18;;;;;;;;;;;26.60;99.90;;;;;;5075104;28;20367;-76
2022/07/19 13:13:44;;;;;;;;;;;26.70;99.90;;;;;;5075974;28;19904;-76
2022/07/19 13:16:10;;;;;;;;;;;26.80;99.90;;;;;;5076198;28;20363;-76
2022/07/19 13:18:35;;;;;;;;;;;26.70;99.90;;;;;;5076139;28;19909;-76
2022/07/19 13:21:01;;;;;;;;;;;26.70;99.90;;;;;;5076049;28;20240;-76
2022/07/19 13:23:26;;;;;;;;;;;26.60;99.90;;;;;;5076446;28;20259;-76
2022/07/19 13:25:52;;;;;;;;;;;26.60;99.90;;;;;;5075918;28;20011;-76
2022/07/19 13:28:18;;;;;;;;;;;26.70;99.90;;;;;;5076328;28;19957;-76
2022/07/19 13:30:43;;;;;;;;;;;26.80;99.90;;;;;;5075685;28;19912;-76
2022/07/19 13:33:10;;;;;;;;;;;26.90;99.90;;;;;;5075644;28;20409;-77
2022/07/19 13:35:35;;;;;;;;;;;26.90;99.90;;;;;;5075928;28;20378;-76
2022/07/19 13:38:01;;;;;;;;;;;26.90;99.90;;;;;;5075813;28;20021;-76
2022/07/19 13:40:27;;;;;;;;;;;26.80;99.90;;;;;;5076049;28;20259;-76
2022/07/19 13:42:53;;;;;;;;;;;26.80;99.90;;;;;;5057486;28;20350;-76
2022/07/19 13:45:19;;;;;;;;;;;26.70;99.90;;;;;;5076015;28;20254;-75
2022/07/19 13:47:45;;;;;;;;;;;26.90;99.90;;;;;;5074972;28;19922;-75
2022/07/19 13:50:10;;;;;;;;;;;26.90;99.90;;;;;;5076067;28;19924;-77
2022/07/19 13:52:36;;;;;;;;;;;26.90;99.90;;;;;;5075980;28;19905;-77
2022/07/19 13:55:02;;;;;;;;;;;27.00;99.90;;;;;;5074919;28;19952;-76
2022/07/19 13:57:28;;;;;;;;;;;26.90;99.90;;;;;;5075879;28;19962;-76
2022/07/19 13:59:53;;;;;;;;;;;26.90;99.90;;;;;;5075271;28;19958;-75
2022/07/19 14:02:19;;;;;;;;;;;27.00;99.90;;;;;;5057750;28;19905;-76
2022/07/19 14:04:45;;;;;;;;;;;27.00;99.90;;;;;;5074863;28;19936;-76
2022/07/19 14:07:10;;;;;;;;;;;27.10;99.90;;;;;;5057763;28;19912;-76
2022/07/19 14:09:36;;;;;;;;;;;27.10;99.90;;;;;;5075388;28;19905;-76
2022/07/19 14:12:01;;;;;;;;;;;27.10;99.90;;;;;;5074541;28;20374;-76
2022/07/19 14:14:27;;;;;;;;;;;27.00;99.90;;;;;;5074959;28;19904;-76
2022/07/19 14:16:52;;;;;;;;;;;27.10;99.90;;;;;;5074416;28;19912;-76
2022/07/19 14:19:18;;;;;;;;;;;27.10;99.90;;;;;;5074446;28;20310;-76